Time;durP1;ratioP1;P1;durP2;ratioP2;P2;SDS_P1;SDS_P2;PMS_P1;PMS_P2;Temp;Humidity;BMP_temperature;BMP_pressure;BME280_temperature;BME280_humidity;BME280_pressure;Samples;Min_cycle;Max_cycle;Signal;HPM_P1;HPM_P2
2022/03/11 00:02:29;;;;;;;42.42;26.23;;;;;;;;;;4939131;29;20048;-78
2022/03/11 00:04:59;;;;;;;42.60;27.70;;;;;;;;;;4938906;29;20051;-78
2022/03/11 00:07:33;;;;;;;47.53;28.88;;;;;;;;;;4938835;29;20056;-77
2022/03/11 00:10:02;;;;;;;43.08;28.98;;;;;;;;;;4938495;29;20082;-78
2022/03/11 00:12:31;;;;;;;43.55;30.60;;;;;;;;;;4938686;28;20051;-78
2022/03/11 00:15:02;;;;;;;39.63;29.13;;;;;;;;;;4938579;29;20138;-78
2022/03/11 00:17:34;;;;;;;40.55;28.42;;;;;;;;;;4936602;29;20107;-78
2022/03/11 00:20:06;;;;;;;41.33;28.90;;;;;;;;;;4937471;29;20051;-78
2022/03/11 00:22:35;;;;;;;42.92;29.27;;;;;;;;;;4937570;29;20066;-78
2022/03/11 00:25:04;;;;;;;40.33;28.63;;;;;;;;;;4937596;29;20091;-78
2022/03/11 00:27:34;;;;;;;45.88;29.58;;;;;;;;;;4937876;29;20495;-78
2022/03/11 00:30:03;;;;;;;44.05;28.48;;;;;;;;;;4936052;29;20048;-77
2022/03/11 00:32:34;;;;;;;36.65;26.13;;;;;;;;;;4937364;29;20539;-77
2022/03/11 00:35:11;;;;;;;41.28;28.35;;;;;;;;;;4937775;29;20052;-76
2022/03/11 00:37:41;;;;;;;40.45;25.80;;;;;;;;;;4937818;29;20044;-77
2022/03/11 00:40:09;;;;;;;35.83;26.48;;;;;;;;;;4938035;29;20048;-77
2022/03/11 00:42:38;;;;;;;37.53;25.98;;;;;;;;;;4935820;29;20051;-77
2022/03/11 00:45:12;;;;;;;36.58;26.70;;;;;;;;;;4936048;29;20058;-77
2022/03/11 00:47:44;;;;;;;43.88;29.02;;;;;;;;;;4937440;29;20062;-77
2022/03/11 00:50:14;;;;;;;48.00;27.75;;;;;;;;;;4937312;29;20044;-77
2022/03/11 00:52:46;;;;;;;41.58;27.90;;;;;;;;;;4937471;29;20052;-77
2022/03/11 00:55:15;;;;;;;34.28;26.15;;;;;;;;;;4940533;29;20083;-79
2022/03/11 00:57:45;;;;;;;40.42;27.80;;;;;;;;;;4941049;29;20115;-79
2022/03/11 01:00:14;;;;;;;40.08;29.50;;;;;;;;;;4943177;29;20051;-76
2022/03/11 01:02:46;;;;;;;36.67;25.98;;;;;;;;;;4958983;29;20513;-77
2022/03/11 01:05:15;;;;;;;44.35;27.98;;;;;;;;;;4959340;29;20406;-78
2022/03/11 01:07:45;;;;;;;38.55;26.75;;;;;;;;;;4959913;28;20106;-79
2022/03/11 01:10:13;;;;;;;37.28;28.15;;;;;;;;;;4959772;28;20406;-79
2022/03/11 01:12:43;;;;;;;37.28;24.88;;;;;;;;;;4960046;28;20421;-79
2022/03/11 01:15:14;;;;;;;42.25;26.20;;;;;;;;;;4960001;28;20059;-78
2022/03/11 01:17:43;;;;;;;40.03;27.30;;;;;;;;;;4959753;29;20059;-79
2022/03/11 01:20:12;;;;;;;37.25;25.45;;;;;;;;;;4959433;28;20529;-79
2022/03/11 01:22:41;;;;;;;39.08;27.55;;;;;;;;;;4959526;28;20077;-79
2022/03/11 01:25:14;;;;;;;42.05;27.33;;;;;;;;;;4960164;28;20051;-78
2022/03/11 01:27:43;;;;;;;37.33;26.63;;;;;;;;;;4960200;28;20086;-78
2022/03/11 01:30:16;;;;;;;35.13;27.98;;;;;;;;;;4959693;28;20551;-78
2022/03/11 01:32:47;;;;;;;37.55;27.05;;;;;;;;;;4959660;28;20086;-76
2022/03/11 01:35:18;;;;;;;38.40;26.30;;;;;;;;;;4959553;28;20047;-76
2022/03/11 01:37:49;;;;;;;45.75;27.95;;;;;;;;;;4959112;29;20079;-76
2022/03/11 01:40:18;;;;;;;39.83;27.20;;;;;;;;;;4960469;28;20054;-76
2022/03/11 01:42:49;;;;;;;43.15;29.63;;;;;;;;;;4959572;28;20079;-76
2022/03/11 01:45:17;;;;;;;43.35;30.17;;;;;;;;;;4959207;28;20059;-76
2022/03/11 01:47:46;;;;;;;42.75;29.05;;;;;;;;;;4959363;28;20051;-76
2022/03/11 01:50:15;;;;;;;38.08;27.80;;;;;;;;;;4959767;29;20047;-76
2022/03/11 01:52:44;;;;;;;43.88;27.92;;;;;;;;;;4959167;29;20051;-76
2022/03/11 01:55:14;;;;;;;46.60;27.88;;;;;;;;;;4959881;28;20107;-78
2022/03/11 01:57:44;;;;;;;41.13;29.30;;;;;;;;;;4959083;28;20533;-78
2022/03/11 02:00:15;;;;;;;41.38;26.95;;;;;;;;;;4958709;28;20142;-78
2022/03/11 02:02:44;;;;;;;42.95;29.73;;;;;;;;;;4958193;29;20055;-78
2022/03/11 02:05:17;;;;;;;47.67;30.55;;;;;;;;;;4959047;28;20055;-78
2022/03/11 02:07:49;;;;;;;45.92;29.90;;;;;;;;;;4959441;28;20051;-78
2022/03/11 02:10:17;;;;;;;42.75;29.15;;;;;;;;;;4958678;28;20082;-77
2022/03/11 02:12:46;;;;;;;45.45;29.92;;;;;;;;;;4958810;28;20047;-76
2022/03/11 02:15:14;;;;;;;48.13;31.08;;;;;;;;;;4958722;29;20224;-76
2022/03/11 02:17:42;;;;;;;42.00;32.15;;;;;;;;;;4959130;28;20047;-76
2022/03/11 02:20:11;;;;;;;51.28;32.35;;;;;;;;;;4959486;28;20055;-76
2022/03/11 02:22:40;;;;;;;48.15;30.50;;;;;;;;;;4958770;29;20058;-76
2022/03/11 02:25:09;;;;;;;41.72;29.63;;;;;;;;;;4958703;28;20051;-76
2022/03/11 02:27:39;;;;;;;50.70;30.80;;;;;;;;;;4958844;28;20098;-76
2022/03/11 02:30:20;;;;;;;56.75;33.45;;;;;;;;;;4958867;28;20078;-76
2022/03/11 02:32:49;;;;;;;46.05;34.63;;;;;;;;;;4958510;28;20392;-76
2022/03/11 02:35:18;;;;;;;50.78;34.60;;;;;;;;;;4958481;28;20507;-76
2022/03/11 02:37:45;;;;;;;45.92;33.35;;;;;;;;;;4958258;29;20043;-76
2022/03/11 02:40:14;;;;;;;55.25;35.38;;;;;;;;;;4958629;28;20503;-76
2022/03/11 02:42:44;;;;;;;59.05;36.92;;;;;;;;;;4958167;29;20443;-76
2022/03/11 02:45:12;;;;;;;54.58;36.45;;;;;;;;;;4957904;29;20062;-76
2022/03/11 02:47:42;;;;;;;57.38;39.33;;;;;;;;;;4957744;28;20066;-76
2022/03/11 02:50:10;;;;;;;58.28;38.85;;;;;;;;;;4958094;28;20051;-76
2022/03/11 02:52:39;;;;;;;53.22;37.90;;;;;;;;;;4957591;28;20067;-76
2022/03/11 02:55:12;;;;;;;50.80;36.45;;;;;;;;;;4957569;28;20051;-76
2022/03/11 02:57:40;;;;;;;57.88;36.20;;;;;;;;;;4958120;28;20051;-77
2022/03/11 03:00:10;;;;;;;48.58;35.40;;;;;;;;;;4958372;28;20419;-76
2022/03/11 03:02:40;;;;;;;51.65;37.30;;;;;;;;;;4958777;28;20086;-76
2022/03/11 03:05:10;;;;;;;55.20;35.85;;;;;;;;;;4958898;28;20058;-76
2022/03/11 03:07:39;;;;;;;52.45;35.15;;;;;;;;;;4957575;28;20066;-77
2022/03/11 03:10:11;;;;;;;55.17;37.13;;;;;;;;;;4957873;28;20075;-77
2022/03/11 03:12:40;;;;;;;55.28;33.42;;;;;;;;;;4957801;28;20055;-77
2022/03/11 03:15:09;;;;;;;55.85;35.45;;;;;;;;;;4957837;29;20439;-77
2022/03/11 03:17:40;;;;;;;58.25;36.75;;;;;;;;;;4957970;28;20055;-77
2022/03/11 03:20:08;;;;;;;57.67;36.95;;;;;;;;;;4958651;28;20075;-76
2022/03/11 03:22:36;;;;;;;57.85;39.53;;;;;;;;;;4958662;28;20055;-76
2022/03/11 03:25:09;;;;;;;56.50;38.85;;;;;;;;;;4957644;28;20047;-77
2022/03/11 03:27:38;;;;;;;52.97;36.35;;;;;;;;;;4957629;28;20106;-76
2022/03/11 03:30:10;;;;;;;49.10;36.15;;;;;;;;;;4957349;28;20043;-76
2022/03/11 03:32:42;;;;;;;52.30;36.83;;;;;;;;;;4958064;28;20047;-76
2022/03/11 03:35:14;;;;;;;52.13;35.20;;;;;;;;;;4957725;28;20055;-76
2022/03/11 03:37:46;;;;;;;51.13;35.47;;;;;;;;;;4957326;28;20047;-76
2022/03/11 03:40:18;;;;;;;50.53;34.33;;;;;;;;;;4957121;28;20569;-76
2022/03/11 03:42:47;;;;;;;52.08;37.10;;;;;;;;;;4957410;28;20043;-76
2022/03/11 03:45:17;;;;;;;50.65;36.28;;;;;;;;;;4957441;29;20498;-76
2022/03/11 03:47:46;;;;;;;47.97;34.30;;;;;;;;;;4957751;29;20052;-76
2022/03/11 03:50:16;;;;;;;53.38;37.20;;;;;;;;;;4958239;28;20055;-76
2022/03/11 03:52:44;;;;;;;55.83;35.08;;;;;;;;;;4956904;28;20047;-76
2022/03/11 03:55:13;;;;;;;51.88;36.45;;;;;;;;;;4956908;28;20055;-76
2022/03/11 03:57:43;;;;;;;57.05;36.55;;;;;;;;;;4957437;28;20053;-76
2022/03/11 04:00:14;;;;;;;52.03;36.50;;;;;;;;;;4957417;28;20102;-77
2022/03/11 04:02:48;;;;;;;52.92;37.72;;;;;;;;;;4957532;28;20062;-76
2022/03/11 04:05:17;;;;;;;53.10;36.28;;;;;;;;;;4957893;28;20047;-76
2022/03/11 04:07:47;;;;;;;49.78;34.42;;;;;;;;;;4955488;29;20083;-76
2022/03/11 04:10:20;;;;;;;53.92;37.42;;;;;;;;;;4957214;29;20090;-76
2022/03/11 04:12:49;;;;;;;48.63;33.03;;;;;;;;;;4956600;28;20110;-76
2022/03/11 04:15:19;;;;;;;51.72;34.33;;;;;;;;;;4957724;28;20054;-77
2022/03/11 04:17:48;;;;;;;49.55;35.65;;;;;;;;;;4956760;28;20098;-76
2022/03/11 04:20:15;;;;;;;43.95;31.23;;;;;;;;;;4956892;28;20127;-75
2022/03/11 04:22:44;;;;;;;40.95;30.08;;;;;;;;;;4955375;29;20130;-76
2022/03/11 04:25:14;;;;;;;44.10;29.88;;;;;;;;;;4956196;28;20051;-76
2022/03/11 04:27:45;;;;;;;48.17;32.47;;;;;;;;;;4955192;28;20490;-75
2022/03/11 04:30:21;;;;;;;50.13;34.28;;;;;;;;;;4956393;28;20070;-75
2022/03/11 04:32:51;;;;;;;45.30;32.78;;;;;;;;;;4956761;28;20047;-75
2022/03/11 04:35:19;;;;;;;51.95;33.60;;;;;;;;;;4956838;28;20146;-75
2022/03/11 04:37:49;;;;;;;48.30;32.28;;;;;;;;;;4956451;28;20059;-76
2022/03/11 04:40:18;;;;;;;53.97;34.65;;;;;;;;;;4956076;28;20579;-76
2022/03/11 04:42:47;;;;;;;48.72;34.55;;;;;;;;;;4956293;28;20043;-75
2022/03/11 04:45:16;;;;;;;53.70;34.85;;;;;;;;;;4955678;28;20055;-76
2022/03/11 04:47:46;;;;;;;59.72;39.88;;;;;;;;;;4954741;28;20051;-79
2022/03/11 04:50:15;;;;;;;48.13;32.10;;;;;;;;;;4958556;28;20066;-79
2022/03/11 04:52:44;;;;;;;53.15;33.90;;;;;;;;;;4957069;29;20047;-79
2022/03/11 04:55:15;;;;;;;53.33;36.70;;;;;;;;;;4956801;28;20135;-79
2022/03/11 04:57:44;;;;;;;54.13;36.72;;;;;;;;;;4957364;28;20070;-77
2022/03/11 05:00:15;;;;;;;49.22;35.92;;;;;;;;;;4957226;28;20047;-77
2022/03/11 05:02:47;;;;;;;53.13;35.40;;;;;;;;;;4957385;28;20494;-77
2022/03/11 05:05:18;;;;;;;45.88;33.60;;;;;;;;;;4957451;28;20130;-76
2022/03/11 05:07:47;;;;;;;54.42;36.55;;;;;;;;;;4954815;29;20098;-76
2022/03/11 05:10:19;;;;;;;54.33;36.92;;;;;;;;;;4955900;29;20047;-76
2022/03/11 05:12:49;;;;;;;56.05;34.45;;;;;;;;;;4954218;29;20051;-76
2022/03/11 05:15:21;;;;;;;49.63;34.80;;;;;;;;;;4956288;29;20109;-76
2022/03/11 05:17:50;;;;;;;47.30;33.70;;;;;;;;;;4952122;29;20130;-76
2022/03/11 05:20:18;;;;;;;49.90;35.47;;;;;;;;;;4956368;28;20055;-76
2022/03/11 05:22:48;;;;;;;51.22;34.92;;;;;;;;;;4956365;29;20055;-76
2022/03/11 05:25:17;;;;;;;55.85;36.08;;;;;;;;;;4955692;29;20055;-76
2022/03/11 05:27:47;;;;;;;48.15;32.88;;;;;;;;;;4955941;28;20441;-77
2022/03/11 05:30:15;;;;;;;60.55;35.55;;;;;;;;;;4956315;28;20054;-76
2022/03/11 05:32:45;;;;;;;61.88;36.28;;;;;;;;;;4955709;29;20126;-76
2022/03/11 05:35:16;;;;;;;53.70;32.35;;;;;;;;;;4956022;28;20051;-76
2022/03/11 05:37:44;;;;;;;53.33;35.05;;;;;;;;;;4955766;28;20093;-78
2022/03/11 05:40:14;;;;;;;60.95;37.92;;;;;;;;;;4957575;28;20062;-79
2022/03/11 05:42:44;;;;;;;48.92;32.38;;;;;;;;;;4958475;28;20051;-76
2022/03/11 05:45:14;;;;;;;44.70;33.38;;;;;;;;;;4956205;28;20419;-77
2022/03/11 05:47:44;;;;;;;54.28;37.53;;;;;;;;;;4957676;29;20055;-77
2022/03/11 05:50:11;;;;;;;53.05;35.53;;;;;;;;;;4957804;29;20098;-77
2022/03/11 05:52:42;;;;;;;50.83;35.63;;;;;;;;;;4959075;28;20521;-78
2022/03/11 05:55:11;;;;;;;56.28;35.78;;;;;;;;;;4956058;29;20073;-78
2022/03/11 05:57:40;;;;;;;59.15;34.83;;;;;;;;;;4957301;28;20048;-79
2022/03/11 06:00:09;;;;;;;54.90;37.38;;;;;;;;;;4958928;28;20061;-79
2022/03/11 06:02:40;;;;;;;61.30;40.95;;;;;;;;;;4957544;29;20062;-76
2022/03/11 06:05:10;;;;;;;63.53;40.47;;;;;;;;;;4973958;28;20051;-76
2022/03/11 06:07:39;;;;;;;56.90;34.75;;;;;;;;;;4958228;28;20470;-78
2022/03/11 06:10:09;;;;;;;55.42;37.55;;;;;;;;;;4958295;29;20043;-76
2022/03/11 06:12:37;;;;;;;54.83;38.03;;;;;;;;;;4957609;29;20043;-76
2022/03/11 06:15:14;;;;;;;58.25;39.28;;;;;;;;;;4958339;28;20106;-76
2022/03/11 06:17:45;;;;;;;59.28;38.35;;;;;;;;;;4957808;28;20059;-76
2022/03/11 06:20:14;;;;;;;54.03;37.63;;;;;;;;;;4955829;29;20122;-76
2022/03/11 06:22:49;;;;;;;62.75;39.35;;;;;;;;;;4958218;28;20059;-75
2022/03/11 06:25:19;;;;;;;53.88;39.08;;;;;;;;;;4958514;28;20118;-75
2022/03/11 06:27:49;;;;;;;59.92;39.60;;;;;;;;;;4954936;29;20047;-74
2022/03/11 06:30:19;;;;;;;59.65;42.53;;;;;;;;;;4956323;28;20043;-75
2022/03/11 06:32:51;;;;;;;59.45;38.45;;;;;;;;;;4955589;29;20047;-76
2022/03/11 06:35:22;;;;;;;68.88;38.42;;;;;;;;;;4971460;28;20047;-76
2022/03/11 06:37:51;;;;;;;53.38;38.42;;;;;;;;;;4955356;29;20082;-76
2022/03/11 06:40:19;;;;;;;66.95;38.75;;;;;;;;;;4972511;28;20058;-75
2022/03/11 06:42:50;;;;;;;53.65;37.63;;;;;;;;;;4958291;29;20047;-76
2022/03/11 06:45:19;;;;;;;53.38;36.90;;;;;;;;;;4957276;28;20436;-76
2022/03/11 06:47:47;;;;;;;57.33;36.92;;;;;;;;;;4957753;28;20395;-77
2022/03/11 06:50:17;;;;;;;57.72;37.97;;;;;;;;;;4957679;28;20035;-76
2022/03/11 06:52:46;;;;;;;64.68;39.53;;;;;;;;;;4956793;28;20578;-76
2022/03/11 06:55:16;;;;;;;58.63;39.90;;;;;;;;;;4961903;28;20047;-74
2022/03/11 06:57:47;;;;;;;65.15;43.03;;;;;;;;;;4971054;28;20074;-73
2022/03/11 07:00:16;;;;;;;61.42;40.45;;;;;;;;;;4957080;29;20098;-73
2022/03/11 07:02:46;;;;;;;57.33;42.30;;;;;;;;;;4952155;28;20093;-81
2022/03/11 07:05:15;;;;;;;77.65;42.17;;;;;;;;;;4955624;28;20043;-76
2022/03/11 07:07:45;;;;;;;65.93;44.30;;;;;;;;;;4955443;28;20419;-76
2022/03/11 07:10:16;;;;;;;65.43;46.38;;;;;;;;;;4957503;28;20098;-78
2022/03/11 07:12:47;;;;;;;68.07;46.17;;;;;;;;;;4955525;29;20079;-76
2022/03/11 07:15:15;;;;;;;69.07;44.58;;;;;;;;;;4957826;28;20047;-79
2022/03/11 07:17:49;;;;;;;63.58;45.15;;;;;;;;;;4953840;29;20058;-79
2022/03/11 07:20:20;;;;;;;78.85;47.20;;;;;;;;;;4956145;29;20074;-77
2022/03/11 07:23:08;;;;;;;67.28;47.55;;;;;;;;;;4955526;28;20062;-78
2022/03/11 07:25:38;;;;;;;67.97;46.63;;;;;;;;;;4954473;29;20047;-81
2022/03/11 07:28:11;;;;;;;59.85;44.20;;;;;;;;;;4956066;28;20070;-80
2022/03/11 07:30:41;;;;;;;66.78;44.10;;;;;;;;;;4951714;28;20052;-81
2022/03/11 07:33:11;;;;;;;69.43;46.38;;;;;;;;;;4953297;29;20051;-81
2022/03/11 07:35:40;;;;;;;65.90;45.63;;;;;;;;;;4955366;28;20055;-75
2022/03/11 07:38:09;;;;;;;68.50;47.55;;;;;;;;;;4954502;29;20150;-76
2022/03/11 07:40:41;;;;;;;73.53;45.90;;;;;;;;;;4954961;29;20047;-76
2022/03/11 07:43:09;;;;;;;64.55;46.22;;;;;;;;;;4952796;29;20042;-73
2022/03/11 07:45:39;;;;;;;61.65;41.08;;;;;;;;;;4948927;28;20051;-75
2022/03/11 07:48:08;;;;;;;61.85;41.85;;;;;;;;;;4951750;29;20474;-75
2022/03/11 07:50:38;;;;;;;61.05;42.00;;;;;;;;;;4951437;29;20511;-74
2022/03/11 07:53:07;;;;;;;57.22;41.13;;;;;;;;;;4954435;28;20047;-75
2022/03/11 07:55:35;;;;;;;58.08;42.10;;;;;;;;;;4952666;29;20151;-72
2022/03/11 07:58:03;;;;;;;56.28;40.42;;;;;;;;;;4953201;29;20046;-71
2022/03/11 08:00:37;;;;;;;49.83;37.10;;;;;;;;;;4951907;28;20090;-72
2022/03/11 08:03:09;;;;;;;54.05;37.50;;;;;;;;;;4956142;28;20047;-70
2022/03/11 08:05:39;;;;;;;52.92;38.35;;;;;;;;;;4955521;28;20396;-69
2022/03/11 08:08:09;;;;;;;54.55;39.88;;;;;;;;;;4955875;28;20062;-69
2022/03/11 08:10:38;;;;;;;48.53;35.25;;;;;;;;;;4955255;28;20466;-69
2022/03/11 08:13:30;;;;;;;56.38;37.78;;;;;;;;;;4955886;28;20054;-72
2022/03/11 08:16:00;;;;;;;56.05;36.35;;;;;;;;;;4951708;28;20044;-76
2022/03/11 08:18:29;;;;;;;53.63;37.03;;;;;;;;;;4956267;28;20059;-75
2022/03/11 08:20:57;;;;;;;45.55;33.80;;;;;;;;;;4955666;28;20493;-75
2022/03/11 08:23:26;;;;;;;50.78;34.80;;;;;;;;;;4955185;28;20082;-75
2022/03/11 08:25:55;;;;;;;51.20;34.35;;;;;;;;;;4955936;28;20086;-76
2022/03/11 08:28:24;;;;;;;47.28;34.35;;;;;;;;;;4955765;28;20058;-80
2022/03/11 08:30:54;;;;;;;51.45;35.33;;;;;;;;;;4955966;28;20087;-78
2022/03/11 08:33:24;;;;;;;47.38;34.47;;;;;;;;;;4954442;28;20051;-79
2022/03/11 08:36:11;;;;;;;43.78;31.70;;;;;;;;;;4954113;29;20102;-79
2022/03/11 08:38:41;;;;;;;49.67;35.97;;;;;;;;;;4955010;29;20066;-78
2022/03/11 08:41:09;;;;;;;47.65;32.45;;;;;;;;;;4956406;28;20067;-78
2022/03/11 08:43:38;;;;;;;45.15;33.80;;;;;;;;;;4954222;29;20084;-80
2022/03/11 08:46:11;;;;;;;43.25;32.67;;;;;;;;;;4954696;29;20051;-80
2022/03/11 08:48:41;;;;;;;46.95;32.17;;;;;;;;;;4955883;28;20106;-81
2022/03/11 08:51:10;;;;;;;41.25;31.42;;;;;;;;;;4955413;28;20131;-81
2022/03/11 08:53:39;;;;;;;36.88;30.42;;;;;;;;;;4954229;28;20062;-79
2022/03/11 08:56:09;;;;;;;42.22;28.98;;;;;;;;;;4956025;28;20055;-78
2022/03/11 08:58:38;;;;;;;34.85;28.25;;;;;;;;;;4950756;29;20110;-78
2022/03/11 09:01:07;;;;;;;39.55;29.27;;;;;;;;;;4950525;29;20075;-78
2022/03/11 09:03:37;;;;;;;43.08;27.77;;;;;;;;;;4958371;28;20047;-77
2022/03/11 09:06:07;;;;;;;38.47;29.88;;;;;;;;;;4956385;28;20546;-77
2022/03/11 09:08:36;;;;;;;39.92;27.58;;;;;;;;;;4956388;28;20139;-77
2022/03/11 09:11:05;;;;;;;34.58;26.70;;;;;;;;;;4956276;28;20071;-77
2022/03/11 09:13:34;;;;;;;35.33;27.90;;;;;;;;;;4955732;29;20224;-79
2022/03/11 09:16:04;;;;;;;34.55;26.67;;;;;;;;;;4959302;28;20087;-85
2022/03/11 09:18:34;;;;;;;37.13;25.58;;;;;;;;;;4959876;28;20055;-76
2022/03/11 09:21:04;;;;;;;29.73;24.33;;;;;;;;;;4960088;28;20055;-79
2022/03/11 09:23:35;;;;;;;28.80;21.67;;;;;;;;;;4959248;29;20043;-84
2022/03/11 09:26:03;;;;;;;29.25;22.63;;;;;;;;;;4959924;28;20094;-77
2022/03/11 09:28:33;;;;;;;27.38;19.75;;;;;;;;;;4959388;28;20692;-78
2022/03/11 09:31:03;;;;;;;25.55;19.15;;;;;;;;;;4956830;29;20051;-76
2022/03/11 09:33:32;;;;;;;30.45;19.20;;;;;;;;;;4957507;29;20058;-77
2022/03/11 09:36:01;;;;;;;24.77;19.10;;;;;;;;;;4958600;28;20057;-79
2022/03/11 09:38:29;;;;;;;24.08;19.48;;;;;;;;;;4955672;29;20051;-78
2022/03/11 09:41:02;;;;;;;24.33;18.77;;;;;;;;;;4958702;28;20047;-78
2022/03/11 09:43:36;;;;;;;24.58;19.35;;;;;;;;;;4959288;29;20063;-79
2022/03/11 09:46:05;;;;;;;25.75;19.52;;;;;;;;;;4959173;28;20227;-79
2022/03/11 09:48:34;;;;;;;29.98;18.48;;;;;;;;;;4958498;28;20055;-78
2022/03/11 09:51:04;;;;;;;27.75;21.23;;;;;;;;;;4959507;29;20047;-79
2022/03/11 09:53:42;;;;;;;20.90;18.23;;;;;;;;;;4953493;29;20604;-76
2022/03/11 09:56:10;;;;;;;25.73;19.40;;;;;;;;;;4958019;29;20051;-77
2022/03/11 09:58:39;;;;;;;25.95;17.77;;;;;;;;;;4958902;28;20454;-79
2022/03/11 10:01:07;;;;;;;26.20;18.95;;;;;;;;;;4953122;29;20071;-79
2022/03/11 10:03:37;;;;;;;26.50;20.05;;;;;;;;;;4958701;28;20055;-79
2022/03/11 10:06:07;;;;;;;29.67;21.23;;;;;;;;;;4959427;28;20058;-78
2022/03/11 10:08:38;;;;;;;26.92;20.58;;;;;;;;;;4958310;29;20047;-78
2022/03/11 10:11:22;;;;;;;23.75;20.58;;;;;;;;;;4958597;28;20047;-77
2022/03/11 10:13:55;;;;;;;26.92;20.23;;;;;;;;;;4958439;28;20118;-77
2022/03/11 10:16:25;;;;;;;;;;;;;;;;;;4952239;28;20053;-82
2022/03/11 10:18:59;;;;;;;23.67;18.92;;;;;;;;;;4957971;28;20017;-79
2022/03/11 10:21:30;;;;;;;23.65;16.88;;;;;;;;;;4958252;28;20055;-77
2022/03/11 10:24:00;;;;;;;29.33;18.38;;;;;;;;;;4958392;28;20047;-79
2022/03/11 10:26:39;;;;;;;19.90;16.80;;;;;;;;;;4958167;28;20058;-73
2022/03/11 10:29:11;;;;;;;22.67;17.38;;;;;;;;;;4957404;28;20062;-74
2022/03/11 10:31:45;;;;;;;19.55;14.02;;;;;;;;;;4957560;28;20047;-74
2022/03/11 10:34:24;;;;;;;21.67;16.02;;;;;;;;;;4957694;29;20095;-78
2022/03/11 10:36:59;;;;;;;25.27;13.40;;;;;;;;;;4958123;28;20521;-77
2022/03/11 10:39:36;;;;;;;22.55;12.38;;;;;;;;;;4957990;28;20085;-77
2022/03/11 10:42:17;;;;;;;20.58;13.52;;;;;;;;;;4957055;29;20059;-78
2022/03/11 10:45:08;;;;;;;13.77;11.98;;;;;;;;;;4957879;28;20070;-78
2022/03/11 10:47:41;;;;;;;15.60;11.20;;;;;;;;;;4957308;28;20056;-78
2022/03/11 10:50:13;;;;;;;15.63;10.85;;;;;;;;;;4958352;28;20039;-81
2022/03/11 10:52:46;;;;;;;15.15;11.15;;;;;;;;;;4958335;28;20059;-78
2022/03/11 10:55:28;;;;;;;15.70;10.88;;;;;;;;;;4957396;29;20107;-78
2022/03/11 10:57:58;;;;;;;11.52;10.30;;;;;;;;;;4956800;28;20047;-78
2022/03/11 11:00:27;;;;;;;13.93;10.50;;;;;;;;;;4955820;28;20080;-78
2022/03/11 11:03:02;;;;;;;12.18;10.00;;;;;;;;;;4955829;28;20055;-75
2022/03/11 11:05:32;;;;;;;13.80;10.75;;;;;;;;;;4956072;29;20098;-79
2022/03/11 11:08:02;;;;;;;19.33;10.32;;;;;;;;;;4954101;28;20446;-82
2022/03/11 11:10:32;;;;;;;11.55;10.32;;;;;;;;;;4951530;29;20098;-78
2022/03/11 11:13:00;;;;;;;10.85;9.75;;;;;;;;;;4956256;29;20081;-80
2022/03/11 11:15:31;;;;;;;20.33;9.50;;;;;;;;;;4957397;29;20051;-75
2022/03/11 11:18:07;;;;;;;12.77;10.80;;;;;;;;;;4957686;28;20055;-76
2022/03/11 11:20:40;;;;;;;14.10;10.35;;;;;;;;;;4956376;28;20058;-76
2022/03/11 11:23:11;;;;;;;18.15;10.68;;;;;;;;;;4956617;28;20439;-77
2022/03/11 11:25:40;;;;;;;14.57;10.25;;;;;;;;;;4956547;28;20054;-75
2022/03/11 11:28:17;;;;;;;12.23;9.93;;;;;;;;;;4956044;29;20059;-76
2022/03/11 11:30:47;;;;;;;11.50;9.43;;;;;;;;;;4955863;29;20423;-78
2022/03/11 11:33:16;;;;;;;17.75;10.93;;;;;;;;;;4955289;29;20047;-77
2022/03/11 11:35:46;;;;;;;14.30;11.52;;;;;;;;;;4955732;28;20118;-76
2022/03/11 11:38:38;;;;;;;28.20;11.43;;;;;;;;;;4957038;28;20506;-78
2022/03/11 11:41:19;;;;;;;13.02;10.35;;;;;;;;;;4956898;28;20082;-78
2022/03/11 11:44:00;;;;;;;13.15;10.77;;;;;;;;;;4957017;28;20075;-78
2022/03/11 11:46:50;;;;;;;12.30;10.95;;;;;;;;;;4957064;28;20075;-79
2022/03/11 11:49:59;;;;;;;18.30;10.70;;;;;;;;;;4949696;29;20131;-78
2022/03/11 11:52:37;;;;;;;14.10;10.27;;;;;;;;;;4959736;28;20525;-77
2022/03/11 11:55:27;;;;;;;11.60;10.50;;;;;;;;;;4956141;29;20051;-77
2022/03/11 11:57:57;;;;;;;17.10;11.10;;;;;;;;;;4955009;29;20047;-78
2022/03/11 12:00:37;;;;;;;14.10;10.45;;;;;;;;;;4955406;28;20059;-78
2022/03/11 12:03:10;;;;;;;14.73;11.65;;;;;;;;;;4957524;29;20051;-77
2022/03/11 12:05:40;;;;;;;11.65;10.35;;;;;;;;;;4971752;28;20577;-78
2022/03/11 12:08:10;;;;;;;12.45;9.80;;;;;;;;;;4954827;28;20415;-78
2022/03/11 12:10:53;;;;;;;13.15;10.77;;;;;;;;;;4958623;29;20047;-77
2022/03/11 12:13:38;;;;;;;10.95;9.70;;;;;;;;;;4957724;29;20221;-81
2022/03/11 12:16:26;;;;;;;14.05;10.02;;;;;;;;;;4963438;28;20487;-82
2022/03/11 12:18:55;;;;;;;11.10;10.00;;;;;;;;;;4963794;29;20051;-73
2022/03/11 12:21:28;;;;;;;19.17;10.70;;;;;;;;;;4962701;29;20130;-77
2022/03/11 12:24:53;;;;;;;14.65;9.70;;;;;;;;;;4957772;29;20048;-79
2022/03/11 12:28:05;;;;;;;14.93;10.80;;;;;;;;;;4958764;29;20055;-79
2022/03/11 12:30:52;;;;;;;13.90;10.43;;;;;;;;;;4898244;29;20052;-76
2022/03/11 12:33:38;;;;;;;14.57;8.77;;;;;;;;;;4898586;29;20059;-76
2022/03/11 12:36:27;;;;;;;12.95;9.50;;;;;;;;;;4949251;29;20047;-79
2022/03/11 12:38:57;;;;;;;16.13;9.57;;;;;;;;;;4962402;29;20051;-77
2022/03/11 12:41:30;;;;;;;14.25;10.38;;;;;;;;;;4962923;28;20398;-78
2022/03/11 12:44:02;;;;;;;10.77;9.65;;;;;;;;;;4962184;28;20047;-77
2022/03/11 12:46:33;;;;;;;11.32;10.15;;;;;;;;;;4962316;28;20083;-76
2022/03/11 12:49:02;;;;;;;15.80;12.00;;;;;;;;;;4959146;28;20075;-78
2022/03/11 12:51:30;;;;;;;11.07;9.23;;;;;;;;;;4960391;29;20074;-76
2022/03/11 12:54:15;;;;;;;13.52;9.95;;;;;;;;;;4960221;28;20051;-75
2022/03/11 12:56:45;;;;;;;15.50;10.82;;;;;;;;;;4961639;28;20058;-76
2022/03/11 12:59:15;;;;;;;13.52;10.38;;;;;;;;;;4955340;29;20055;-76
2022/03/11 13:01:50;;;;;;;15.32;10.57;;;;;;;;;;4956626;29;20412;-76
2022/03/11 13:04:23;;;;;;;20.50;10.77;;;;;;;;;;4958593;29;20051;-76
2022/03/11 13:07:17;;;;;;;15.13;9.60;;;;;;;;;;4959700;29;20039;-76
2022/03/11 13:09:46;;;;;;;12.93;9.70;;;;;;;;;;4960785;28;20051;-75
2022/03/11 13:12:40;;;;;;;13.10;9.60;;;;;;;;;;4960692;28;20055;-76
2022/03/11 13:15:11;;;;;;;14.77;10.32;;;;;;;;;;4955550;29;20566;-77
2022/03/11 13:17:44;;;;;;;10.02;8.77;;;;;;;;;;4961226;28;20077;-79
2022/03/11 13:20:30;;;;;;;23.02;10.43;;;;;;;;;;4959439;29;20043;-82
2022/03/11 13:23:00;;;;;;;9.98;8.90;;;;;;;;;;4963707;29;20083;-82
2022/03/11 13:25:29;;;;;;;11.75;9.75;;;;;;;;;;4978820;28;20067;-79
2022/03/11 13:27:58;;;;;;;15.40;9.18;;;;;;;;;;4962724;29;20130;-78
2022/03/11 13:30:35;;;;;;;13.25;11.30;;;;;;;;;;4973514;28;20039;-79
2022/03/11 13:33:33;;;;;;;13.02;10.13;;;;;;;;;;4956606;29;20054;-80
2022/03/11 13:36:42;;;;;;;9.77;8.63;;;;;;;;;;4941076;29;20054;-79
2022/03/11 13:39:17;;;;;;;12.70;9.25;;;;;;;;;;4959978;29;20561;-78
2022/03/11 13:41:50;;;;;;;11.35;9.27;;;;;;;;;;4962451;29;20054;-80
2022/03/11 13:44:38;;;;;;;13.77;9.80;;;;;;;;;;4962382;28;20130;-81
2022/03/11 13:47:16;;;;;;;13.60;9.60;;;;;;;;;;4963080;28;20051;-79
2022/03/11 13:49:53;;;;;;;13.07;9.55;;;;;;;;;;4963416;28;20058;-78
2022/03/11 13:52:41;;;;;;;12.10;9.32;;;;;;;;;;4959024;29;20510;-78
2022/03/11 13:55:11;;;;;;;15.10;9.00;;;;;;;;;;4964084;28;20082;-78
2022/03/11 13:57:44;;;;;;;13.57;9.43;;;;;;;;;;4963388;28;20074;-79
2022/03/11 14:00:17;;;;;;;13.95;9.18;;;;;;;;;;4957770;28;20058;-80
2022/03/11 14:02:46;;;;;;;17.35;9.95;;;;;;;;;;4962694;28;20048;-78
2022/03/11 14:05:22;;;;;;;12.05;10.15;;;;;;;;;;4964907;28;20083;-76
2022/03/11 14:08:00;;;;;;;14.25;10.23;;;;;;;;;;4963420;28;20043;-77
2022/03/11 14:10:28;;;;;;;10.75;9.40;;;;;;;;;;4963509;29;20047;-78
2022/03/11 14:13:25;;;;;;;12.05;9.43;;;;;;;;;;4980099;28;20153;-81
2022/03/11 14:15:53;;;;;;;13.02;9.07;;;;;;;;;;4963401;29;20098;-82
2022/03/11 14:18:25;;;;;;;11.50;10.15;;;;;;;;;;4958779;29;20062;-79
2022/03/11 14:21:06;;;;;;;15.13;9.70;;;;;;;;;;4963908;29;20055;-81
2022/03/11 14:23:35;;;;;;;12.30;9.73;;;;;;;;;;4966377;28;20059;-82
2022/03/11 14:26:03;;;;;;;13.98;11.15;;;;;;;;;;4962076;28;20054;-82
2022/03/11 14:28:31;;;;;;;14.45;10.85;;;;;;;;;;4966222;29;20051;-82
2022/03/11 14:31:01;;;;;;;14.27;9.35;;;;;;;;;;4960481;28;20106;-82
2022/03/11 14:33:31;;;;;;;13.05;10.10;;;;;;;;;;4964241;28;20067;-82
2022/03/11 14:36:04;;;;;;;12.18;10.35;;;;;;;;;;4963585;29;20059;-79
2022/03/11 14:38:34;;;;;;;11.63;9.65;;;;;;;;;;4965472;29;20051;-78
2022/03/11 14:41:03;;;;;;;18.90;9.88;;;;;;;;;;4962973;28;20044;-79
2022/03/11 14:43:32;;;;;;;10.75;8.13;;;;;;;;;;4956940;28;20062;-79
2022/03/11 14:46:04;;;;;;;11.57;9.80;;;;;;;;;;4957105;29;20105;-81
2022/03/11 14:48:34;;;;;;;15.87;10.00;;;;;;;;;;4958102;28;20059;-82